Amsterdam, NY

2:31 AM EDT on August 31, 2016 (GMT -0400)
East End @ Kirk Douglas House | | Change Station

Elev 276 ft 42.93 °N, 74.18 °W | Updated 6 seconds ago

Scattered Clouds
Scattered Clouds
62.5 °F
Feels Like 62.5 °F
N
0.0
Wind Variable Wind from SW
Gusts 0.0 mph

Today
High -- | Low -- °F
--% Chance of Precip.
Yesterday
High -- | Low -- °F
Precip. -- in
Pressure 30.01 in
Visibility 10.0 miles
Clouds Scattered Clouds 26000 ft
Dew Point 61 °F
Humidity 95%
Rainfall 0.00 in
Snow Depth Not available.
6:20 AM 7:32 PM
Waning Crescent, 1% visible
METAR KALB 310551Z 00000KT 10SM SCT260 18/14 A3002 RMK AO2 SLP163 T01780144 10228 20172 56007
Pressure 30.01 in
Visibility 10.0 miles
Clouds Scattered Clouds 26000 ft
Dew Point 61 °F
Humidity 95%
Rainfall 0.00 in
Snow Depth Not available.
6:20 AM 7:32 PM
Waning Crescent, 1% visible
METAR KALB 310551Z 00000KT 10SM SCT260 18/14 A3002 RMK AO2 SLP163 T01780144 10228 20172 56007

10-Day Weather Forecast

Almanac

Astronomy

Aug. 31, 2016 Rise Set
Actual Time
Civil Twilight
Nautical Twilight
Astronomical Twilight
Moon
Length of Visible Light
Length of Day
Tomorrow will be .
, % of the Moon is Illuminated

Today's Extremes

State Highs State Lows

Community

WunderPhotos

Upload Photos

1,936,040 photos uploaded!

WunderBlog® & News

Nearby

Air Quality

  Air Quality AQ Index Pollutant
Not available.

Snow Depth

Station Depth Elevation

Earthquake Activity

City Distance Mag. Time & Date
Minimum magnitude displayed is 2.5.

Coastal Water Temperatures

Place Temperature

Stations

Nearby Weather Stations

Station Location Temp. Windchill Dew Point Humidity Wind Precip. Elev Updated Type
                   

Watches & Warnings

There are currently no watches in effect.